sensor_id;sensor_type;location;lat;lon;timestamp;pressure;altitude;pressure_sealevel;temperature;humidity
43770;BME280;6597;52.218;9.882;2022-08-07T00:01:24;101862.38;;;12.68;87.22
43770;BME280;6597;52.218;9.882;2022-08-07T00:03:51;101870.34;;;12.65;87.58
43770;BME280;6597;52.218;9.882;2022-08-07T00:06:17;101860.88;;;12.58;87.12
43770;BME280;6597;52.218;9.882;2022-08-07T00:08:44;101857.34;;;12.59;87.40
43770;BME280;6597;52.218;9.882;2022-08-07T00:11:11;101854.69;;;12.59;87.25
43770;BME280;6597;52.218;9.882;2022-08-07T00:13:38;101864.34;;;12.60;87.84
43770;BME280;6597;52.218;9.882;2022-08-07T00:16:06;101860.78;;;12.61;88.42
43770;BME280;6597;52.218;9.882;2022-08-07T00:18:34;101871.41;;;12.58;88.23
43770;BME280;6597;52.218;9.882;2022-08-07T00:21:04;101872.34;;;12.56;88.35
43770;BME280;6597;52.218;9.882;2022-08-07T00:23:32;101869.75;;;12.54;88.34
43770;BME280;6597;52.218;9.882;2022-08-07T00:26:00;101852.22;;;12.53;89.21
43770;BME280;6597;52.218;9.882;2022-08-07T00:28:27;101856.56;;;12.56;88.74
43770;BME280;6597;52.218;9.882;2022-08-07T00:30:54;101855.69;;;12.55;89.07
43770;BME280;6597;52.218;9.882;2022-08-07T00:33:20;101859.28;;;12.53;88.91
43770;BME280;6597;52.218;9.882;2022-08-07T00:35:52;101871.78;;;12.44;88.75
43770;BME280;6597;52.218;9.882;2022-08-07T00:38:19;101868.41;;;12.39;88.96
43770;BME280;6597;52.218;9.882;2022-08-07T00:40:45;101871.97;;;12.35;89.13
43770;BME280;6597;52.218;9.882;2022-08-07T00:43:12;101862.44;;;12.31;90.10
43770;BME280;6597;52.218;9.882;2022-08-07T00:45:39;101865.13;;;12.28;89.55
43770;BME280;6597;52.218;9.882;2022-08-07T00:48:08;101852.13;;;12.22;89.86
43770;BME280;6597;52.218;9.882;2022-08-07T00:50:35;101856.59;;;12.19;89.48
43770;BME280;6597;52.218;9.882;2022-08-07T00:53:03;101849.69;;;12.14;89.96
43770;BME280;6597;52.218;9.882;2022-08-07T00:55:30;101859.41;;;12.12;89.89
43770;BME280;6597;52.218;9.882;2022-08-07T00:57:57;101856.78;;;12.11;89.57
43770;BME280;6597;52.218;9.882;2022-08-07T01:00:24;101859.53;;;12.06;89.99
43770;BME280;6597;52.218;9.882;2022-08-07T01:02:52;101849.06;;;12.05;89.49
43770;BME280;6597;52.218;9.882;2022-08-07T01:05:19;101857.84;;;12.04;89.78
43770;BME280;6597;52.218;9.882;2022-08-07T01:07:47;101858.75;;;12.01;90.02
43770;BME280;6597;52.218;9.882;2022-08-07T01:10:15;101851.06;;;11.94;90.15
43770;BME280;6597;52.218;9.882;2022-08-07T01:12:43;101847.53;;;11.95;90.22
43770;BME280;6597;52.218;9.882;2022-08-07T01:15:10;101862.44;;;11.94;90.27
43770;BME280;6597;52.218;9.882;2022-08-07T01:17:37;101859.03;;;11.91;90.30
43770;BME280;6597;52.218;9.882;2022-08-07T01:20:07;101851.16;;;11.89;90.31
43770;BME280;6597;52.218;9.882;2022-08-07T01:22:37;101853.91;;;11.84;90.03
43770;BME280;6597;52.218;9.882;2022-08-07T01:25:05;101854.84;;;11.82;90.39
43770;BME280;6597;52.218;9.882;2022-08-07T01:27:33;101854.91;;;11.79;90.65
43770;BME280;6597;52.218;9.882;2022-08-07T01:30:02;101848.00;;;11.73;90.68
43770;BME280;6597;52.218;9.882;2022-08-07T01:32:29;101848.94;;;11.71;90.82
43770;BME280;6597;52.218;9.882;2022-08-07T01:34:57;101845.47;;;11.67;90.76
43770;BME280;6597;52.218;9.882;2022-08-07T01:37:25;101849.06;;;11.63;90.92
43770;BME280;6597;52.218;9.882;2022-08-07T01:39:57;101846.53;;;11.60;91.21
43770;BME280;6597;52.218;9.882;2022-08-07T01:42:28;101850.09;;;11.58;90.89
43770;BME280;6597;52.218;9.882;2022-08-07T01:44:56;101852.78;;;11.54;91.36
43770;BME280;6597;52.218;9.882;2022-08-07T01:47:23;101848.47;;;11.52;91.44
43770;BME280;6597;52.218;9.882;2022-08-07T01:49:50;101839.75;;;11.50;91.83
43770;BME280;6597;52.218;9.882;2022-08-07T01:52:18;101841.59;;;11.45;91.88
43770;BME280;6597;52.218;9.882;2022-08-07T01:54:45;101840.81;;;11.41;92.14
43770;BME280;6597;52.218;9.882;2022-08-07T01:57:17;101837.34;;;11.38;92.14
43770;BME280;6597;52.218;9.882;2022-08-07T01:59:53;101842.66;;;11.35;92.33
43770;BME280;6597;52.218;9.882;2022-08-07T02:02:24;101836.72;;;11.27;92.26
43770;BME280;6597;52.218;9.882;2022-08-07T02:04:55;101835.84;;;11.26;92.73
43770;BME280;6597;52.218;9.882;2022-08-07T02:07:29;101841.25;;;11.20;92.53
43770;BME280;6597;52.218;9.882;2022-08-07T02:09:59;101834.31;;;11.16;92.78
43770;BME280;6597;52.218;9.882;2022-08-07T02:12:30;101830.88;;;11.12;93.22
43770;BME280;6597;52.218;9.882;2022-08-07T02:14:59;101837.09;;;11.08;93.38
43770;BME280;6597;52.218;9.882;2022-08-07T02:17:34;101831.88;;;11.05;93.36
43770;BME280;6597;52.218;9.882;2022-08-07T02:20:04;101832.78;;;11.04;93.85
43770;BME280;6597;52.218;9.882;2022-08-07T02:22:31;101824.97;;;11.01;93.80
43770;BME280;6597;52.218;9.882;2022-08-07T02:25:01;101829.38;;;10.99;93.72
43770;BME280;6597;52.218;9.882;2022-08-07T02:27:32;101832.97;;;10.95;93.70
43770;BME280;6597;52.218;9.882;2022-08-07T02:30:00;101819.97;;;10.89;93.89
43770;BME280;6597;52.218;9.882;2022-08-07T02:32:32;101820.84;;;10.88;94.43
43770;BME280;6597;52.218;9.882;2022-08-07T02:35:02;101823.53;;;10.85;94.07
43770;BME280;6597;52.218;9.882;2022-08-07T02:37:31;101820.09;;;10.83;94.50
43770;BME280;6597;52.218;9.882;2022-08-07T02:40:00;101823.56;;;10.83;94.79
43770;BME280;6597;52.218;9.882;2022-08-07T02:42:31;101814.88;;;10.81;95.29
43770;BME280;6597;52.218;9.882;2022-08-07T02:45:00;101811.41;;;10.79;94.97
43770;BME280;6597;52.218;9.882;2022-08-07T02:47:28;101815.81;;;10.77;95.38
43770;BME280;6597;52.218;9.882;2022-08-07T02:50:09;101815.88;;;10.74;95.45
43770;BME280;6597;52.218;9.882;2022-08-07T02:52:39;101812.41;;;10.71;95.38
43770;BME280;6597;52.218;9.882;2022-08-07T02:55:11;101812.41;;;10.71;95.64
43770;BME280;6597;52.218;9.882;2022-08-07T02:57:40;101818.53;;;10.71;96.23
43770;BME280;6597;52.218;9.882;2022-08-07T03:00:10;101819.44;;;10.70;95.81
43770;BME280;6597;52.218;9.882;2022-08-07T03:02:39;101817.63;;;10.72;96.51
43770;BME280;6597;52.218;9.882;2022-08-07T03:05:08;101822.06;;;10.70;96.32
43770;BME280;6597;52.218;9.882;2022-08-07T03:07:36;101812.50;;;10.66;97.05
43770;BME280;6597;52.218;9.882;2022-08-07T03:10:04;101817.81;;;10.63;96.73
43770;BME280;6597;52.218;9.882;2022-08-07T03:12:33;101817.88;;;10.60;98.00
43770;BME280;6597;52.218;9.882;2022-08-07T03:15:08;101816.16;;;10.59;97.36
43770;BME280;6597;52.218;9.882;2022-08-07T03:17:36;101812.63;;;10.60;97.34
43770;BME280;6597;52.218;9.882;2022-08-07T03:20:06;101816.97;;;10.61;97.44
43770;BME280;6597;52.218;9.882;2022-08-07T03:22:35;101811.75;;;10.59;97.96
43770;BME280;6597;52.218;9.882;2022-08-07T03:25:03;101820.50;;;10.60;97.60
43770;BME280;6597;52.218;9.882;2022-08-07T03:27:37;101815.28;;;10.58;97.66
43770;BME280;6597;52.218;9.882;2022-08-07T03:30:08;101814.47;;;10.55;97.81
43770;BME280;6597;52.218;9.882;2022-08-07T03:32:38;101822.38;;;10.53;98.12
43770;BME280;6597;52.218;9.882;2022-08-07T03:35:11;101816.28;;;10.51;98.11
43770;BME280;6597;52.218;9.882;2022-08-07T03:37:40;101816.28;;;10.51;98.00
43770;BME280;6597;52.218;9.882;2022-08-07T03:40:10;101817.19;;;10.50;98.36
43770;BME280;6597;52.218;9.882;2022-08-07T03:42:37;101820.72;;;10.48;98.33
43770;BME280;6597;52.218;9.882;2022-08-07T03:45:08;101821.63;;;10.47;98.39
43770;BME280;6597;52.218;9.882;2022-08-07T03:47:36;101824.28;;;10.45;97.95
43770;BME280;6597;52.218;9.882;2022-08-07T03:50:03;101817.31;;;10.43;98.63
43770;BME280;6597;52.218;9.882;2022-08-07T03:52:36;101819.97;;;10.41;98.29
43770;BME280;6597;52.218;9.882;2022-08-07T03:55:06;101821.75;;;10.41;98.94
43770;BME280;6597;52.218;9.882;2022-08-07T03:57:36;101813.88;;;10.38;98.63
43770;BME280;6597;52.218;9.882;2022-08-07T04:00:04;101815.59;;;10.40;98.50
43770;BME280;6597;52.218;9.882;2022-08-07T04:02:42;101821.72;;;10.39;99.09
43770;BME280;6597;52.218;9.882;2022-08-07T04:05:19;101827.91;;;10.37;98.99
43770;BME280;6597;52.218;9.882;2022-08-07T04:07:47;101816.50;;;10.38;99.56
43770;BME280;6597;52.218;9.882;2022-08-07T04:10:18;101823.50;;;10.39;99.37
43770;BME280;6597;52.218;9.882;2022-08-07T04:12:46;101820.88;;;10.39;99.22
43770;BME280;6597;52.218;9.882;2022-08-07T04:15:14;101825.25;;;10.38;99.13
43770;BME280;6597;52.218;9.882;2022-08-07T04:17:44;101826.09;;;10.40;99.62
43770;BME280;6597;52.218;9.882;2022-08-07T04:20:11;101818.22;;;10.40;98.85
43770;BME280;6597;52.218;9.882;2022-08-07T04:22:39;101821.75;;;10.41;99.52
43770;BME280;6597;52.218;9.882;2022-08-07T04:25:08;101822.56;;;10.43;99.71
43770;BME280;6597;52.218;9.882;2022-08-07T04:27:36;101819.09;;;10.42;99.77
43770;BME280;6597;52.218;9.882;2022-08-07T04:30:08;101814.69;;;10.43;99.44
43770;BME280;6597;52.218;9.882;2022-08-07T04:32:54;101820.81;;;10.43;99.81
43770;BME280;6597;52.218;9.882;2022-08-07T04:35:23;101833.03;;;10.44;99.95
43770;BME280;6597;52.218;9.882;2022-08-07T04:37:54;101826.94;;;10.44;99.47
43770;BME280;6597;52.218;9.882;2022-08-07T04:40:21;101829.53;;;10.45;99.78
43770;BME280;6597;52.218;9.882;2022-08-07T04:42:48;101826.84;;;10.48;99.68
43770;BME280;6597;52.218;9.882;2022-08-07T04:45:15;101824.13;;;10.53;99.74
43770;BME280;6597;52.218;9.882;2022-08-07T04:47:51;101831.09;;;10.55;99.50
43770;BME280;6597;52.218;9.882;2022-08-07T04:50:31;101830.13;;;10.59;99.70
43770;BME280;6597;52.218;9.882;2022-08-07T04:53:21;101831.00;;;10.60;100.00
43770;BME280;6597;52.218;9.882;2022-08-07T04:55:54;101833.50;;;10.66;100.00
43770;BME280;6597;52.218;9.882;2022-08-07T04:58:25;101831.69;;;10.70;100.00
43770;BME280;6597;52.218;9.882;2022-08-07T05:01:01;101831.56;;;10.77;100.00
43770;BME280;6597;52.218;9.882;2022-08-07T05:03:38;101824.47;;;10.82;100.00
43770;BME280;6597;52.218;9.882;2022-08-07T05:06:10;101829.59;;;10.88;100.00
43770;BME280;6597;52.218;9.882;2022-08-07T05:08:41;101821.69;;;10.90;100.00
43770;BME280;6597;52.218;9.882;2022-08-07T05:11:15;101825.13;;;10.94;99.45
43770;BME280;6597;52.218;9.882;2022-08-07T05:13:50;101844.16;;;11.06;99.34
43770;BME280;6597;52.218;9.882;2022-08-07T05:16:19;101839.63;;;11.13;99.13
43770;BME280;6597;52.218;9.882;2022-08-07T05:18:51;101835.97;;;11.20;99.51
43770;BME280;6597;52.218;9.882;2022-08-07T05:21:22;101834.94;;;11.27;99.03
43770;BME280;6597;52.218;9.882;2022-08-07T05:23:56;101838.28;;;11.35;98.99
43770;BME280;6597;52.218;9.882;2022-08-07T05:26:25;101847.78;;;11.42;98.94
43770;BME280;6597;52.218;9.882;2022-08-07T05:29:02;101845.00;;;11.50;98.40
43770;BME280;6597;52.218;9.882;2022-08-07T05:31:33;101846.56;;;11.59;98.40
43770;BME280;6597;52.218;9.882;2022-08-07T05:34:05;101847.16;;;11.70;98.08
43770;BME280;6597;52.218;9.882;2022-08-07T05:36:37;101837.38;;;11.79;98.15
43770;BME280;6597;52.218;9.882;2022-08-07T05:39:13;101845.84;;;11.91;97.54
43770;BME280;6597;52.218;9.882;2022-08-07T05:41:41;101843.91;;;11.99;96.18
43770;BME280;6597;52.218;9.882;2022-08-07T05:44:09;101843.72;;;12.08;96.01
43770;BME280;6597;52.218;9.882;2022-08-07T05:46:41;101845.22;;;12.18;95.98
43770;BME280;6597;52.218;9.882;2022-08-07T05:49:08;101842.31;;;12.29;95.21
43770;BME280;6597;52.218;9.882;2022-08-07T05:51:37;101845.63;;;12.37;94.84
43770;BME280;6597;52.218;9.882;2022-08-07T05:54:04;101849.84;;;12.44;94.05
43770;BME280;6597;52.218;9.882;2022-08-07T05:56:32;101837.38;;;12.51;93.76
43770;BME280;6597;52.218;9.882;2022-08-07T05:59:01;101848.41;;;12.65;93.59
43770;BME280;6597;52.218;9.882;2022-08-07T06:01:29;101841.22;;;12.71;92.16
43770;BME280;6597;52.218;9.882;2022-08-07T06:03:56;101842.69;;;12.82;92.91
43770;BME280;6597;52.218;9.882;2022-08-07T06:06:25;101851.22;;;12.91;91.84
43770;BME280;6597;52.218;9.882;2022-08-07T06:08:55;101843.84;;;13.04;91.80
43770;BME280;6597;52.218;9.882;2022-08-07T06:11:23;101851.53;;;13.12;91.61
43770;BME280;6597;52.218;9.882;2022-08-07T06:13:50;101846.94;;;13.20;91.27
43770;BME280;6597;52.218;9.882;2022-08-07T06:16:19;101846.56;;;13.33;90.62
43770;BME280;6597;52.218;9.882;2022-08-07T06:18:48;101851.47;;;13.46;90.41
43770;BME280;6597;52.218;9.882;2022-08-07T06:21:16;101848.53;;;13.55;89.33
43770;BME280;6597;52.218;9.882;2022-08-07T06:23:43;101853.44;;;13.68;88.25
43770;BME280;6597;52.218;9.882;2022-08-07T06:26:12;101853.91;;;13.81;88.36
43770;BME280;6597;52.218;9.882;2022-08-07T06:28:53;101845.59;;;13.93;86.55
43770;BME280;6597;52.218;9.882;2022-08-07T06:31:21;101855.63;;;14.10;86.13
43770;BME280;6597;52.218;9.882;2022-08-07T06:33:48;101850.78;;;14.23;84.69
43770;BME280;6597;52.218;9.882;2022-08-07T06:36:15;101851.22;;;14.37;83.54
43770;BME280;6597;52.218;9.882;2022-08-07T06:38:49;101849.59;;;14.59;81.47
43770;BME280;6597;52.218;9.882;2022-08-07T06:41:24;101844.38;;;14.83;79.73
43770;BME280;6597;52.218;9.882;2022-08-07T06:43:52;101848.56;;;15.13;79.83
43770;BME280;6597;52.218;9.882;2022-08-07T06:46:20;101845.03;;;15.38;75.54
43770;BME280;6597;52.218;9.882;2022-08-07T06:48:47;101846.59;;;15.67;76.04
43770;BME280;6597;52.218;9.882;2022-08-07T06:51:20;101845.44;;;15.96;74.36
43770;BME280;6597;52.218;9.882;2022-08-07T06:53:50;101851.31;;;16.24;74.42
43770;BME280;6597;52.218;9.882;2022-08-07T06:56:20;101840.84;;;16.63;73.32
43770;BME280;6597;52.218;9.882;2022-08-07T06:59:05;101834.25;;;16.94;71.01
43770;BME280;6597;52.218;9.882;2022-08-07T07:01:35;101841.19;;;17.35;69.49
43770;BME280;6597;52.218;9.882;2022-08-07T07:04:03;101839.50;;;17.72;67.23
43770;BME280;6597;52.218;9.882;2022-08-07T07:06:31;101840.59;;;18.04;66.27
43770;BME280;6597;52.218;9.882;2022-08-07T07:09:20;101839.97;;;18.16;65.50
43770;BME280;6597;52.218;9.882;2022-08-07T07:11:57;101830.88;;;18.39;65.75
43770;BME280;6597;52.218;9.882;2022-08-07T07:14:27;101835.19;;;18.59;63.88
43770;BME280;6597;52.218;9.882;2022-08-07T07:16:56;101834.09;;;18.80;63.46
43770;BME280;6597;52.218;9.882;2022-08-07T07:19:28;101830.56;;;19.13;62.00
43770;BME280;6597;52.218;9.882;2022-08-07T07:21:56;101834.72;;;19.18;60.12
43770;BME280;6597;52.218;9.882;2022-08-07T07:24:23;101829.84;;;19.26;59.69
43770;BME280;6597;52.218;9.882;2022-08-07T07:26:55;101831.66;;;19.26;59.07
43770;BME280;6597;52.218;9.882;2022-08-07T07:29:24;101829.75;;;19.28;59.43
43770;BME280;6597;52.218;9.882;2022-08-07T07:31:54;101829.59;;;19.47;59.45
43770;BME280;6597;52.218;9.882;2022-08-07T07:34:27;101832.22;;;19.64;59.72
43770;BME280;6597;52.218;9.882;2022-08-07T07:36:56;101824.91;;;19.99;59.04
43770;BME280;6597;52.218;9.882;2022-08-07T07:39:25;101820.56;;;20.12;55.81
43770;BME280;6597;52.218;9.882;2022-08-07T07:41:55;101821.34;;;20.14;56.69
43770;BME280;6597;52.218;9.882;2022-08-07T07:44:23;101818.06;;;20.25;55.19
43770;BME280;6597;52.218;9.882;2022-08-07T07:46:50;101811.28;;;20.19;55.22
43770;BME280;6597;52.218;9.882;2022-08-07T07:49:19;101819.69;;;20.28;55.88
43770;BME280;6597;52.218;9.882;2022-08-07T07:51:47;101806.66;;;20.53;56.76
43770;BME280;6597;52.218;9.882;2022-08-07T07:54:15;101812.59;;;20.72;55.46
43770;BME280;6597;52.218;9.882;2022-08-07T07:56:43;101800.31;;;20.84;54.44
43770;BME280;6597;52.218;9.882;2022-08-07T07:59:12;101807.38;;;20.85;55.17
43770;BME280;6597;52.218;9.882;2022-08-07T08:01:42;101801.94;;;21.01;52.92
43770;BME280;6597;52.218;9.882;2022-08-07T08:04:11;101794.50;;;21.06;53.16
43770;BME280;6597;52.218;9.882;2022-08-07T08:06:38;101792.69;;;21.35;52.20
43770;BME280;6597;52.218;9.882;2022-08-07T08:09:07;101795.81;;;21.56;52.02
43770;BME280;6597;52.218;9.882;2022-08-07T08:11:34;101786.13;;;21.94;51.03
43770;BME280;6597;52.218;9.882;2022-08-07T08:14:01;101786.03;;;22.23;49.25
43770;BME280;6597;52.218;9.882;2022-08-07T08:16:33;101787.00;;;22.22;48.99
43770;BME280;6597;52.218;9.882;2022-08-07T08:19:01;101782.06;;;22.28;49.37
43770;BME280;6597;52.218;9.882;2022-08-07T08:21:29;101778.22;;;22.32;48.59
43770;BME280;6597;52.218;9.882;2022-08-07T08:24:16;101779.50;;;22.27;49.21
43770;BME280;6597;52.218;9.882;2022-08-07T08:27:02;101774.81;;;22.43;48.35
43770;BME280;6597;52.218;9.882;2022-08-07T08:29:39;101785.22;;;22.60;47.46
43770;BME280;6597;52.218;9.882;2022-08-07T08:32:08;101781.91;;;22.70;47.91
43770;BME280;6597;52.218;9.882;2022-08-07T08:34:37;101773.81;;;22.84;46.50
43770;BME280;6597;52.218;9.882;2022-08-07T08:37:06;101777.09;;;23.00;45.69
43770;BME280;6597;52.218;9.882;2022-08-07T08:39:35;101774.09;;;23.17;45.14
43770;BME280;6597;52.218;9.882;2022-08-07T08:42:05;101792.88;;;23.41;44.05
43770;BME280;6597;52.218;9.882;2022-08-07T08:44:35;101780.25;;;23.31;45.73
43770;BME280;6597;52.218;9.882;2022-08-07T08:47:10;101774.75;;;23.57;44.97
43770;BME280;6597;52.218;9.882;2022-08-07T08:49:41;101786.28;;;23.95;43.25
43770;BME280;6597;52.218;9.882;2022-08-07T08:52:17;101775.56;;;24.30;42.47
43770;BME280;6597;52.218;9.882;2022-08-07T08:54:50;101767.22;;;24.57;41.63
43770;BME280;6597;52.218;9.882;2022-08-07T08:57:26;101773.81;;;24.52;41.91
43770;BME280;6597;52.218;9.882;2022-08-07T09:00:00;101779.78;;;24.56;40.73
43770;BME280;6597;52.218;9.882;2022-08-07T09:02:36;101772.72;;;24.66;40.77
43770;BME280;6597;52.218;9.882;2022-08-07T09:05:17;101769.34;;;24.87;40.65
43770;BME280;6597;52.218;9.882;2022-08-07T09:07:48;101772.03;;;25.20;40.11
43770;BME280;6597;52.218;9.882;2022-08-07T09:10:20;101768.00;;;25.37;38.72
43770;BME280;6597;52.218;9.882;2022-08-07T09:12:55;101762.16;;;25.09;37.76
43770;BME280;6597;52.218;9.882;2022-08-07T09:15:35;101767.03;;;24.82;37.66
43770;BME280;6597;52.218;9.882;2022-08-07T09:18:17;101768.28;;;25.11;37.96
43770;BME280;6597;52.218;9.882;2022-08-07T09:20:55;101754.91;;;25.43;37.62
43770;BME280;6597;52.218;9.882;2022-08-07T09:23:31;101750.59;;;25.74;36.43
43770;BME280;6597;52.218;9.882;2022-08-07T09:26:13;101756.38;;;25.91;34.92
43770;BME280;6597;52.218;9.882;2022-08-07T09:28:42;101750.56;;;26.07;35.10
43770;BME280;6597;52.218;9.882;2022-08-07T09:31:19;101748.91;;;26.15;34.86
43770;BME280;6597;52.218;9.882;2022-08-07T09:34:05;101746.72;;;25.88;33.92
43770;BME280;6597;52.218;9.882;2022-08-07T09:36:37;101745.94;;;25.97;34.51
43770;BME280;6597;52.218;9.882;2022-08-07T09:39:17;101736.31;;;26.16;34.19
43770;BME280;6597;52.218;9.882;2022-08-07T09:41:50;101734.66;;;26.35;34.89
43770;BME280;6597;52.218;9.882;2022-08-07T09:44:37;101727.66;;;26.54;32.97
43770;BME280;6597;52.218;9.882;2022-08-07T09:47:13;101729.44;;;26.02;33.32
43770;BME280;6597;52.218;9.882;2022-08-07T09:49:51;101723.94;;;25.71;35.22
43770;BME280;6597;52.218;9.882;2022-08-07T09:52:27;101733.66;;;25.84;34.32
43770;BME280;6597;52.218;9.882;2022-08-07T09:54:57;101723.16;;;25.81;33.25
43770;BME280;6597;52.218;9.882;2022-08-07T09:57:52;101726.34;;;25.63;33.73
43770;BME280;6597;52.218;9.882;2022-08-07T10:00:23;101727.88;;;25.88;36.05
43770;BME280;6597;52.218;9.882;2022-08-07T10:03:30;101714.97;;;26.35;33.98
43770;BME280;6597;52.218;9.882;2022-08-07T10:06:25;101710.78;;;26.82;32.93
43770;BME280;6597;52.218;9.882;2022-08-07T10:09:23;101711.75;;;27.12;32.30
43770;BME280;6597;52.218;9.882;2022-08-07T10:12:07;101702.13;;;27.09;32.21
43770;BME280;6597;52.218;9.882;2022-08-07T10:14:58;101708.38;;;26.89;32.40
43770;BME280;6597;52.218;9.882;2022-08-07T10:17:47;101703.31;;;26.95;33.10
43770;BME280;6597;52.218;9.882;2022-08-07T10:20:21;101707.66;;;27.17;31.37
43770;BME280;6597;52.218;9.882;2022-08-07T10:23:17;101707.44;;;27.40;31.91
43770;BME280;6597;52.218;9.882;2022-08-07T10:25:56;101700.19;;;27.40;30.44
43770;BME280;6597;52.218;9.882;2022-08-07T10:28:40;101690.97;;;27.33;30.83
43770;BME280;6597;52.218;9.882;2022-08-07T10:31:32;101693.22;;;26.97;32.78
43770;BME280;6597;52.218;9.882;2022-08-07T10:34:11;101693.75;;;27.12;32.58
43770;BME280;6597;52.218;9.882;2022-08-07T10:36:50;101693.66;;;27.33;32.53
43770;BME280;6597;52.218;9.882;2022-08-07T10:39:32;101691.22;;;27.30;31.29
43770;BME280;6597;52.218;9.882;2022-08-07T10:42:10;101692.94;;;27.41;31.35
43770;BME280;6597;52.218;9.882;2022-08-07T10:44:49;101694.09;;;27.57;30.84
43770;BME280;6597;52.218;9.882;2022-08-07T10:47:21;101686.91;;;27.68;32.45
43770;BME280;6597;52.218;9.882;2022-08-07T10:49:58;101686.84;;;27.58;29.56
43770;BME280;6597;52.218;9.882;2022-08-07T10:52:32;101678.63;;;27.40;30.24
43770;BME280;6597;52.218;9.882;2022-08-07T10:55:10;101677.88;;;27.19;30.17
43770;BME280;6597;52.218;9.882;2022-08-07T10:57:46;101673.75;;;27.24;31.37
43770;BME280;6597;52.218;9.882;2022-08-07T11:00:14;101671.81;;;27.46;30.44
43770;BME280;6597;52.218;9.882;2022-08-07T11:02:48;101669.13;;;26.96;31.10
43770;BME280;6597;52.218;9.882;2022-08-07T11:05:29;101664.69;;;27.25;31.38
43770;BME280;6597;52.218;9.882;2022-08-07T11:08:03;101661.91;;;27.75;31.13
43770;BME280;6597;52.218;9.882;2022-08-07T11:10:41;101658.31;;;28.04;31.16
43770;BME280;6597;52.218;9.882;2022-08-07T11:13:16;101653.75;;;27.95;28.73
43770;BME280;6597;52.218;9.882;2022-08-07T11:15:47;101656.19;;;27.49;29.56
43770;BME280;6597;52.218;9.882;2022-08-07T11:18:20;101646.53;;;27.37;30.57
43770;BME280;6597;52.218;9.882;2022-08-07T11:20:55;101656.72;;;27.24;29.75
43770;BME280;6597;52.218;9.882;2022-08-07T11:23:30;101644.25;;;27.23;30.06
43770;BME280;6597;52.218;9.882;2022-08-07T11:26:07;101645.25;;;27.22;29.81
43770;BME280;6597;52.218;9.882;2022-08-07T11:28:40;101639.44;;;27.36;30.18
43770;BME280;6597;52.218;9.882;2022-08-07T11:31:12;101633.78;;;27.68;30.24
43770;BME280;6597;52.218;9.882;2022-08-07T11:33:48;101626.78;;;27.95;30.85
43770;BME280;6597;52.218;9.882;2022-08-07T11:36:29;101627.78;;;27.84;29.82
43770;BME280;6597;52.218;9.882;2022-08-07T11:39:07;101621.88;;;27.71;30.51
43770;BME280;6597;52.218;9.882;2022-08-07T11:41:41;101618.72;;;27.85;30.33
43770;BME280;6597;52.218;9.882;2022-08-07T11:44:16;101619.13;;;28.00;29.71
43770;BME280;6597;52.218;9.882;2022-08-07T11:46:57;101616.78;;;28.24;30.08
43770;BME280;6597;52.218;9.882;2022-08-07T11:49:45;101611.22;;;28.63;29.09
43770;BME280;6597;52.218;9.882;2022-08-07T11:52:32;101604.69;;;28.83;28.70
43770;BME280;6597;52.218;9.882;2022-08-07T11:55:12;101602.78;;;28.93;28.92
43770;BME280;6597;52.218;9.882;2022-08-07T11:57:52;101602.94;;;28.92;28.61
43770;BME280;6597;52.218;9.882;2022-08-07T12:00:29;101603.44;;;29.05;27.95
43770;BME280;6597;52.218;9.882;2022-08-07T12:03:14;101600.69;;;29.32;27.77
43770;BME280;6597;52.218;9.882;2022-08-07T12:05:57;101597.03;;;29.41;29.13
43770;BME280;6597;52.218;9.882;2022-08-07T12:08:35;101598.28;;;29.29;27.15
43770;BME280;6597;52.218;9.882;2022-08-07T12:11:07;101600.22;;;29.01;27.48
43770;BME280;6597;52.218;9.882;2022-08-07T12:13:42;101593.34;;;29.07;27.64
43770;BME280;6597;52.218;9.882;2022-08-07T12:16:15;101586.06;;;29.25;27.74
43770;BME280;6597;52.218;9.882;2022-08-07T12:18:47;101589.53;;;29.18;27.53
43770;BME280;6597;52.218;9.882;2022-08-07T12:21:23;101580.97;;;29.40;29.13
43770;BME280;6597;52.218;9.882;2022-08-07T12:23:56;101583.59;;;29.50;27.54
43770;BME280;6597;52.218;9.882;2022-08-07T12:26:28;101572.25;;;29.28;27.61
43770;BME280;6597;52.218;9.882;2022-08-07T12:29:04;101574.00;;;29.20;27.20
43770;BME280;6597;52.218;9.882;2022-08-07T12:31:36;101584.19;;;28.90;27.30
43770;BME280;6597;52.218;9.882;2022-08-07T12:34:04;101579.03;;;29.15;29.85
43770;BME280;6597;52.218;9.882;2022-08-07T12:36:33;101580.44;;;29.01;27.06
43770;BME280;6597;52.218;9.882;2022-08-07T12:39:03;101578.50;;;28.66;28.35
43770;BME280;6597;52.218;9.882;2022-08-07T12:41:34;101570.56;;;28.37;27.49
43770;BME280;6597;52.218;9.882;2022-08-07T12:44:06;101574.25;;;28.63;29.07
43770;BME280;6597;52.218;9.882;2022-08-07T12:46:56;101566.84;;;28.83;28.39
43770;BME280;6597;52.218;9.882;2022-08-07T12:49:34;101566.59;;;29.22;27.65
43770;BME280;6597;52.218;9.882;2022-08-07T12:52:05;101565.88;;;29.55;27.66
43770;BME280;6597;52.218;9.882;2022-08-07T12:54:42;101562.13;;;29.74;27.49
43770;BME280;6597;52.218;9.882;2022-08-07T12:57:15;101560.28;;;29.74;27.43
43770;BME280;6597;52.218;9.882;2022-08-07T12:59:45;101556.47;;;30.11;27.38
43770;BME280;6597;52.218;9.882;2022-08-07T13:02:38;101552.19;;;30.43;27.25
43770;BME280;6597;52.218;9.882;2022-08-07T13:05:17;101565.59;;;30.52;26.62
43770;BME280;6597;52.218;9.882;2022-08-07T13:08:20;101556.22;;;30.30;26.63
43770;BME280;6597;52.218;9.882;2022-08-07T13:10:56;101550.59;;;30.24;26.64
43770;BME280;6597;52.218;9.882;2022-08-07T13:13:35;101551.53;;;30.07;26.92
43770;BME280;6597;52.218;9.882;2022-08-07T13:16:14;101547.38;;;29.94;26.80
43770;BME280;6597;52.218;9.882;2022-08-07T13:18:50;101550.91;;;30.21;26.71
43770;BME280;6597;52.218;9.882;2022-08-07T13:21:23;101547.25;;;30.30;25.94
43770;BME280;6597;52.218;9.882;2022-08-07T13:23:54;101545.66;;;30.19;25.75
43770;BME280;6597;52.218;9.882;2022-08-07T13:26:30;101546.66;;;30.10;26.77
43770;BME280;6597;52.218;9.882;2022-08-07T13:29:05;101543.47;;;30.23;25.33